Cat Creek, Montana
Current Conditions -  °F | °C
As of 5:00 AM on Sunday 21 Dec 2014 (Local Time) from KMVH Reporting Station
Overcast Overcast  
Wind Chill: 27°   Ceiling: 5000
Heat Index: 32°   Visibility: 10mi
Dew Point: 23°   Wind: 5mph
Humidity: 69%   Direction: 320°NW
Pressure: 29.41"   Gusts: NA
Location:  47.1145°N, 108.252°W
Report Text: KMVH 211200Z AUTO 32004KT 10SM BKN050 OVC060 M00/M05 A2941 RMK A01
Loading
Personal Weather Stations






























Interactive Weather Map New forecast layout! Learn more

10-Day Weather Forecast

Advertisements
Track Severe Weather on mobile